Terminal Aerodrome Forecast
Issued by NWS Denver/Boulder, CO

Home | Current Version | Previous Version | Text Only | Print | Product List | Glossary On
Versions: 1 2 3 4 5 6 7 8 9 10 11 12 13 14 15 16 17 18 19 20 21 22 23 24 25 26 27 28 29 30 31 32 33 34 35 36 37 38 39 40 41 42 43 44 45 46
000
FTUS45 KBOU 220855 AAA
TAFDEN
TAF AMD
KDEN 220855Z 2209/2312 22015G22KT P6SM FEW120
     FM221200 24012G18KT P6SM FEW120
     FM221700 28014G21KT P6SM SCT220
     FM222000 33010KT P6SM FEW120 SCT220
     FM230200 03012KT P6SM SCT100 BKN150
     FM230600 26008KT P6SM SCT100 BKN150
     FM231000 02006KT P6SM SCT080 BKN100=

USA.gov is the U.S. government's official web portal to all federal, state and local government web resources and services.